Etusivu
METAR-TAF:

METAR-TAF

Lentoasemat :

Evenes, Norja

Harstadin/Narvikin lentoasema

Leveyspiiri: 68-31N, Pituuspiiri: 016-41E, korkeus merenpinnasta: 26 m

Tämänhetkinen sää

Tämä raportti tehtiin 15 minuuttia sitten, kello 17.50 UTC
Tuuli 3 kn lounaasta
Lämpötila -7°C
Kosteus 67%
Ilmanpaine 1029 hPa
Näkyvyys 10 km tai enemmän
Hajonneita pilviä 5500 ft:n korkeudessa

METAR: ENEV 191750Z 22003KT 9999 BKN055 M07/M12 Q1029 RMK WIND 1400FT 13010KT

Aika: 19:05 (18:05 UTC)

Sääennuste

Tämä raportti tehtiin 1 tunti ja 5 minuuttia sitten, kello 17.00 UTC
Ennuste voimassa 19. päivästä klo 18 UTC - 19. päivään klo 24 UTC
Tuuli 5 kn etelästä/kaakosta
Näkyvyys 10 km tai enemmän
Muutamia pilviä 2500 ft:n korkeudessa
Hajonneita pilviä 5000 ft:n korkeudessa

TAF: ENEV 191700Z 1918/1924 15005KT 9999 FEW025 BKN050

Säähavainnot ja -ennusteet yli 4000 lentoasemalta (METAR- ja TAF-raportit).

Käytössä olevat sääasemat on merkitty karttaan keltaisilla ja punaisilla pisteillä.

Aseta hiiri pisteen päälle nähdäksesi sääaseman nimen.

Klikkaa sitten nähdäksesi säähavainnot ja -ennusteet.

Kartan vaihtaminen: klikkaa mustalla rastilla varustettuja vihreitä pisteitä, niin voit zoomata sisään; viivalla varustettua vihreää pistettä, niin voit zoomata ulos tai vihreitä nuolia, niin pääset viereisille kartoille.


METAR-TAF: